Time;durP1;ratioP1;P1;durP2;ratioP2;P2;SDS_P1;SDS_P2;PMS_P1;PMS_P2;Temp;Humidity;BMP_temperature;BMP_pressure;BME280_temperature;BME280_humidity;BME280_pressure;Samples;Min_cycle;Max_cycle;Signal;HPM_P1;HPM_P2
2022/08/03 00:01:33;;;;;;;;;4.00;4.00;;;;;27.57;45.26;100839.69;5014869;28;45580;-83
2022/08/03 00:07:20;;;;;;;;;4.25;4.00;;;;;27.33;45.44;100846.56;5017761;28;45683;-81
2022/08/03 00:09:45;;;;;;;;;3.00;3.00;;;;;27.29;45.96;100850.75;5017162;28;46608;-80
2022/08/03 00:12:11;;;;;;;;;5.00;5.00;;;;;27.25;45.28;100849.50;5017248;28;45682;-82
2022/08/03 00:14:36;;;;;;;;;2.00;2.00;;;;;27.18;45.82;100846.84;5017498;28;45566;-77
2022/08/03 00:17:02;;;;;;;;;3.00;3.00;;;;;27.14;45.71;100842.94;4999355;28;47559;-78
2022/08/03 00:19:27;;;;;;;;;2.00;2.00;;;;;27.07;45.39;100848.31;5016769;28;45693;-82
2022/08/03 00:21:53;;;;;;;;;3.00;3.00;;;;;27.07;45.71;100845.63;5016608;28;45709;-77
2022/08/03 00:24:18;;;;;;;;;3.75;3.75;;;;;26.97;45.91;100847.94;5017594;28;45712;-77
2022/08/03 00:26:44;;;;;;;;;5.75;4.50;;;;;26.98;46.21;100854.97;4998823;28;47630;-77
2022/08/03 00:29:10;;;;;;;;;4.00;4.00;;;;;26.95;46.32;100852.69;5017179;28;45528;-79
2022/08/03 00:31:35;;;;;;;;;3.25;3.25;;;;;26.94;45.85;100856.41;5016677;28;45496;-79
2022/08/03 00:37:23;;;;;;;;;5.75;3.50;;;;;26.90;45.86;100844.41;5016600;28;45627;-82
2022/08/03 00:39:48;;;;;;;;;2.75;2.50;;;;;26.80;45.77;100838.63;4998344;28;47073;-84
2022/08/03 00:42:14;;;;;;;;;2.00;2.00;;;;;26.87;45.63;100850.22;5016550;28;45757;-82
2022/08/03 00:44:41;;;;;;;;;2.50;2.50;;;;;26.82;46.03;100849.19;5016553;28;45910;-81
2022/08/03 00:47:06;;;;;;;;;2.25;2.00;;;;;26.71;46.42;100835.34;5016490;28;46634;-80
2022/08/03 00:52:56;;;;;;;;;2.00;2.00;;;;;26.65;45.42;100838.03;5016223;28;45514;-81
2022/08/03 00:55:23;;;;;;;;;1.50;1.50;;;;;26.66;46.05;100839.69;5016633;28;45638;-79
2022/08/03 00:57:48;;;;;;;;;1.00;1.00;;;;;26.64;45.93;100844.44;5016354;28;46584;-81
2022/08/03 01:00:20;;;;;;;;;3.00;2.00;;;;;26.60;45.60;100837.81;5016103;28;46376;-77
2022/08/03 01:02:45;;;;;;;;;2.00;2.00;;;;;26.53;46.14;100827.06;5016426;28;45531;-80
2022/08/03 01:05:11;;;;;;;;;1.50;1.25;;;;;26.51;46.08;100836.34;5017023;28;45724;-80
2022/08/03 01:08:00;;;;;;;;;1.00;1.00;;;;;26.45;45.87;100838.00;4998708;28;47381;-77
2022/08/03 01:11:01;;;;;;;;;1.75;1.75;;;;;26.41;46.41;100834.09;5016734;28;46611;-81
2022/08/03 01:13:39;;;;;;;;;1.00;1.00;;;;;26.33;46.52;100828.94;4935421;28;45843;-80
2022/08/03 01:16:26;;;;;;;;;1.50;1.50;;;;;26.30;46.49;100826.66;5005596;28;45542;-80
2022/08/03 01:18:52;;;;;;;;;2.00;1.50;;;;;26.24;46.31;100817.53;5015685;28;46534;-82
2022/08/03 01:21:27;;;;;;;;;2.00;1.25;;;;;26.19;46.68;100822.69;5015368;28;45491;-78
2022/08/03 01:24:03;;;;;;;;;1.75;1.25;;;;;26.14;46.40;100814.41;5016028;28;45786;-79
2022/08/03 01:27:05;;;;;;;;;2.00;2.00;;;;;26.12;46.42;100815.66;5015964;28;45766;-79
2022/08/03 01:29:49;;;;;;;;;1.25;1.25;;;;;26.07;46.75;100818.16;5015536;28;45699;-82
2022/08/03 01:32:20;;;;;;;;;1.00;1.00;;;;;26.03;46.75;100814.19;5015776;28;46806;-78
2022/08/03 01:34:59;;;;;;;;;1.00;0.75;;;;;25.96;46.65;100806.16;5015852;28;45595;-83
2022/08/03 01:37:31;;;;;;;;;1.50;1.50;;;;;25.97;46.54;100806.94;5016095;28;45827;-82
2022/08/03 01:39:59;;;;;;;;;0.25;0.25;;;;;25.94;47.01;100804.69;5015234;28;46595;-84
2022/08/03 01:42:27;;;;;;;;;1.00;1.00;;;;;25.87;47.06;100800.13;4997509;28;47355;-80
2022/08/03 01:44:56;;;;;;;;;1.00;1.00;;;;;25.90;47.03;100806.97;5015550;28;45796;-84
2022/08/03 01:47:24;;;;;;;;;1.25;1.25;;;;;25.87;46.99;100804.66;5015795;28;45481;-82
2022/08/03 01:49:51;;;;;;;;;2.00;2.00;;;;;25.86;47.06;100809.22;5015364;28;46716;-81
2022/08/03 01:52:19;;;;;;;;;1.25;1.00;;;;;25.84;46.90;100805.91;5015782;28;46038;-84
2022/08/03 01:54:48;;;;;;;;;0.00;0.00;;;;;25.82;46.94;100794.53;5015429;28;45644;-84
2022/08/03 01:57:15;;;;;;;;;1.00;1.00;;;;;25.76;46.97;100795.34;4997360;28;45944;-83
2022/08/03 01:59:42;;;;;;;;;2.25;1.75;;;;;25.76;46.84;100795.34;5015488;28;45903;-82
2022/08/03 02:02:12;;;;;;;;;1.00;1.00;;;;;25.70;47.03;100790.78;5015616;28;46098;-84
2022/08/03 02:04:39;;;;;;;;;1.00;1.00;;;;;25.66;46.49;100792.25;5015533;28;45702;-84
2022/08/03 02:07:08;;;;;;;;;2.25;1.00;;;;;25.69;46.67;100789.16;5016180;28;45693;-85
2022/08/03 02:09:37;;;;;;;;;0.25;0.25;;;;;25.68;46.72;100787.50;5015627;28;45594;-83
2022/08/03 02:12:06;;;;;;;;;0.75;0.75;;;;;25.76;46.80;100797.22;5015491;28;46215;-84
2022/08/03 02:14:33;;;;;;;;;2.00;1.00;;;;;25.76;46.67;100797.22;5015466;28;45612;-81
2022/08/03 02:17:00;;;;;;;;;1.00;1.00;;;;;25.71;46.67;100786.25;5015855;28;45720;-82
2022/08/03 02:19:27;;;;;;;;;1.00;1.00;;;;;25.76;46.93;100789.97;5014812;28;46667;-80
2022/08/03 02:21:53;;;;;;;;;1.00;1.00;;;;;25.75;46.55;100782.94;5014766;28;46463;-83
2022/08/03 02:24:18;;;;;;;;;1.00;1.00;;;;;25.70;46.79;100777.38;5015101;28;45613;-81
2022/08/03 02:26:45;;;;;;;;;1.00;1.00;;;;;25.72;46.73;100783.38;5014514;28;45619;-81
2022/08/03 02:29:17;;;;;;;;;2.00;1.00;;;;;25.70;47.31;100774.69;5015152;28;46601;-83
2022/08/03 02:31:45;;;;;;;;;1.00;1.00;;;;;25.61;46.87;100765.19;5015357;28;45905;-84
2022/08/03 02:34:14;;;;;;;;;1.75;1.75;;;;;25.66;47.01;100776.13;5015008;28;45670;-84
2022/08/03 02:36:43;;;;;;;;;2.00;1.75;;;;;25.62;46.81;100777.56;5015431;28;45568;-79
2022/08/03 02:39:10;;;;;;;;;2.00;1.50;;;;;25.63;47.01;100770.34;5016003;28;45590;-85
2022/08/03 02:41:45;;;;;;;;;2.00;2.00;;;;;25.66;47.20;100781.50;5015486;28;46318;-82
2022/08/03 02:44:11;;;;;;;;;2.00;1.50;;;;;25.66;47.06;100781.50;5015227;28;45694;-79
2022/08/03 02:46:40;;;;;;;;;2.00;2.00;;;;;25.63;47.30;100776.56;5014997;28;45622;-82
2022/08/03 02:49:07;;;;;;;;;3.25;2.00;;;;;25.66;46.96;100781.50;5014725;28;45639;-84
2022/08/03 02:51:35;;;;;;;;;2.75;1.00;;;;;25.64;47.38;100772.00;5015075;28;45745;-84
2022/08/03 02:54:02;;;;;;;;;2.00;2.00;;;;;25.66;47.28;100776.13;5014831;28;45630;-80
2022/08/03 02:56:29;;;;;;;;;2.75;1.50;;;;;25.65;47.44;100777.16;5014869;28;45446;-80
2022/08/03 02:58:57;;;;;;;;;3.00;2.00;;;;;25.62;47.39;100766.84;5014588;28;45554;-81
2022/08/03 03:01:24;;;;;;;;;2.75;1.75;;;;;25.65;47.18;100761.06;5014383;28;45627;-81
2022/08/03 03:03:52;;;;;;;;;2.75;2.00;;;;;25.65;47.27;100770.97;5014061;28;45595;-80
2022/08/03 03:09:39;;;;;;;;;2.00;2.00;;;;;25.59;47.45;100753.00;5013768;28;46152;-78
2022/08/03 03:12:07;;;;;;;;;1.00;1.00;;;;;25.61;47.49;100761.66;5014337;28;45807;-79
2022/08/03 03:14:33;;;;;;;;;2.00;1.00;;;;;25.59;47.10;100761.84;4996088;28;45645;-79
2022/08/03 03:17:01;;;;;;;;;1.00;1.00;;;;;25.60;47.25;100770.75;5014311;28;45740;-78
2022/08/03 03:19:26;;;;;;;;;1.50;1.00;;;;;25.56;47.07;100758.75;5013808;28;45559;-77
2022/08/03 03:21:52;;;;;;;;;0.00;0.00;;;;;25.56;46.98;100754.22;5013662;28;45639;-84
2022/08/03 03:24:19;;;;;;;;;1.00;1.00;;;;;25.48;47.04;100749.81;5014140;28;45803;-79
2022/08/03 03:26:46;;;;;;;;;1.25;1.00;;;;;25.52;46.87;100761.00;5014316;28;45798;-80
2022/08/03 03:29:12;;;;;;;;;0.25;0.25;;;;;25.48;47.13;100749.00;5014151;28;46619;-80
2022/08/03 03:31:38;;;;;;;;;1.25;1.00;;;;;25.50;47.56;100765.75;5014328;28;46461;-83
2022/08/03 03:34:04;;;;;;;;;1.75;1.00;;;;;25.49;47.30;100764.91;5014484;28;45721;-80
2022/08/03 03:39:53;;;;;;;;;1.25;1.00;;;;;25.47;47.00;100752.75;5018629;28;46073;-82
2022/08/03 03:42:19;;;;;;;;;2.00;1.00;;;;;25.46;47.23;100762.63;5018132;28;46673;-83
2022/08/03 03:44:44;;;;;;;;;1.25;0.50;;;;;25.47;47.25;100755.41;5017956;28;45581;-81
2022/08/03 03:47:10;;;;;;;;;1.25;1.25;;;;;25.44;47.39;100750.44;5017841;28;45643;-82
2022/08/03 03:49:36;;;;;;;;;2.50;1.25;;;;;25.48;47.30;100752.50;5017418;28;45502;-83
2022/08/03 03:52:01;;;;;;;;;2.00;1.00;;;;;25.48;47.43;100757.88;5017459;28;46619;-81
2022/08/03 03:54:41;;;;;;;;;1.50;1.50;;;;;25.47;47.46;100750.88;5017703;28;45519;-83
2022/08/03 03:57:09;;;;;;;;;1.00;1.00;;;;;25.45;47.28;100744.88;5017613;28;45769;-83
2022/08/03 03:59:40;;;;;;;;;1.00;1.00;;;;;25.48;47.37;100760.56;5017315;28;46733;-81
2022/08/03 04:02:06;;;;;;;;;2.00;1.75;;;;;25.48;47.24;100755.19;5017082;28;45730;-82
2022/08/03 04:10:58;;;;;;;;;2.00;2.00;;;;;25.47;47.46;100766.97;5016808;28;46171;-80
2022/08/03 04:13:28;;;;;;;;;1.00;1.00;;;;;25.49;47.67;100756.84;5017227;28;46485;-81
2022/08/03 04:15:56;;;;;;;;;1.00;0.50;;;;;25.45;47.61;100755.63;4999219;28;45735;-81
2022/08/03 04:18:23;;;;;;;;;2.00;2.00;;;;;25.48;47.33;100765.94;4998946;28;45929;-79
2022/08/03 04:20:50;;;;;;;;;3.25;1.75;;;;;25.49;48.15;100764.06;5016230;28;46463;-84
2022/08/03 04:23:21;;;;;;;;;1.50;1.25;;;;;25.44;47.61;100753.13;5017751;28;45630;-83
2022/08/03 04:25:49;;;;;;;;;2.25;1.75;;;;;25.42;47.37;100744.47;5017473;28;45677;-81
2022/08/03 04:28:16;;;;;;;;;1.00;1.00;;;;;25.44;47.61;100753.94;4998768;28;45944;-80
2022/08/03 04:30:47;;;;;;;;;2.25;2.00;;;;;25.43;47.61;100749.63;5016573;28;46818;-81
2022/08/03 04:33:13;;;;;;;;;1.50;1.00;;;;;25.43;47.71;100746.94;5017192;28;46141;-80
2022/08/03 04:35:43;;;;;;;;;1.00;1.00;;;;;25.42;47.55;100741.78;5019920;28;45691;-81
2022/08/03 04:38:13;;;;;;;;;1.00;1.00;;;;;25.40;47.51;100736.63;5019641;28;45677;-83
2022/08/03 04:40:41;;;;;;;;;4.00;2.00;;;;;25.47;47.58;100750.06;5017830;28;45662;-82
2022/08/03 04:43:09;;;;;;;;;2.50;2.00;;;;;25.40;47.74;100749.19;5020188;28;45929;-79
2022/08/03 04:45:35;;;;;;;;;2.00;2.00;;;;;25.43;47.49;100743.41;5005400;28;45684;-82
2022/08/03 04:48:02;;;;;;;;;1.00;1.00;;;;;25.49;47.46;100747.97;5021516;28;45817;-80
2022/08/03 04:50:28;;;;;;;;;1.25;1.00;;;;;25.53;47.55;100751.94;5018934;28;45692;-82
2022/08/03 04:52:54;;;;;;;;;2.75;2.00;;;;;25.56;47.58;100754.22;5016711;28;46235;-80
2022/08/03 04:55:30;;;;;;;;;2.00;1.50;;;;;25.57;47.42;100755.88;5016598;28;45741;-81
2022/08/03 04:57:57;;;;;;;;;1.50;1.50;;;;;25.56;47.87;100751.53;5016486;28;45737;-82
2022/08/03 05:00:23;;;;;;;;;1.75;1.25;;;;;25.55;47.54;100744.47;5016555;28;46441;-80
2022/08/03 05:02:48;;;;;;;;;2.00;1.00;;;;;25.55;47.71;100751.72;5016000;28;45429;-78
2022/08/03 05:05:14;;;;;;;;;1.75;1.75;;;;;25.58;47.19;100759.41;5015695;28;45575;-77
2022/08/03 05:11:01;;;;;;;;;1.00;1.00;;;;;25.57;47.37;100758.56;5016500;28;45594;-79
2022/08/03 05:13:27;;;;;;;;;1.75;1.75;;;;;25.55;47.26;100759.75;5016040;28;46276;-79
2022/08/03 05:15:52;;;;;;;;;2.00;2.00;;;;;25.55;47.54;100755.22;5016334;28;45578;-79
2022/08/03 05:18:18;;;;;;;;;1.25;1.25;;;;;25.57;47.52;100760.44;5016210;28;45652;-79
2022/08/03 05:24:55;;;;;;;;;2.00;2.00;;;;;25.63;47.49;100759.63;5015966;28;45736;-78
2022/08/03 05:27:20;;;;;;;;;2.00;2.00;;;;;25.63;47.10;100768.50;5016084;28;45518;-77
2022/08/03 05:29:47;;;;;;;;;2.00;1.25;;;;;25.64;47.42;100764.75;5016219;28;45563;-79
2022/08/03 05:32:13;;;;;;;;;2.00;2.00;;;;;25.66;47.62;100768.09;5016585;28;45610;-82
2022/08/03 05:34:39;;;;;;;;;2.25;2.00;;;;;25.65;47.62;100758.38;5016782;28;46584;-82
2022/08/03 05:40:25;;;;;;;;;2.00;1.50;;;;;25.69;47.32;100765.00;5015713;28;45825;-80
2022/08/03 05:42:51;;;;;;;;;3.00;2.00;;;;;25.67;47.86;100760.84;4997847;28;47419;-77
2022/08/03 05:45:17;;;;;;;;;1.00;1.00;;;;;25.69;47.52;100770.38;4998374;28;45730;-79
2022/08/03 05:47:46;;;;;;;;;2.25;2.25;;;;;25.71;47.84;100770.97;5015465;28;45724;-81
2022/08/03 05:50:13;;;;;;;;;1.75;1.50;;;;;25.69;47.62;100769.53;5015710;28;45668;-79
2022/08/03 05:56:00;;;;;;;;;3.75;3.75;;;;;25.71;47.86;100765.59;5016036;28;45523;-81
2022/08/03 05:58:25;;;;;;;;;3.00;3.00;;;;;25.72;48.14;100766.44;5016961;28;45541;-82
2022/08/03 06:00:51;;;;;;;;;4.00;4.00;;;;;25.73;47.87;100763.56;5016301;28;45757;-79
2022/08/03 06:03:16;;;;;;;;;3.25;2.00;;;;;25.69;47.99;100762.31;5016317;28;45679;-79
2022/08/03 06:05:42;;;;;;;;;3.00;2.25;;;;;25.74;47.81;100775.97;4999005;28;47277;-82
2022/08/03 06:11:29;;;;;;;;;4.25;2.75;;;;;25.79;47.46;100781.53;5016500;28;45534;-82
2022/08/03 06:13:55;;;;;;;;;3.25;3.25;;;;;25.83;47.64;100787.31;5017968;28;45513;-83
2022/08/03 06:16:21;;;;;;;;;3.00;2.00;;;;;25.84;47.71;100783.59;5018309;28;46299;-81
2022/08/03 06:18:46;;;;;;;;;3.75;2.25;;;;;25.85;47.73;100772.66;5016533;28;45547;-77
2022/08/03 06:21:12;;;;;;;;;4.00;3.00;;;;;25.82;47.68;100767.69;5000018;28;45841;-84
2022/08/03 06:26:59;;;;;;;;;2.50;2.25;;;;;25.97;47.56;100778.22;5017133;28;45838;-88
2022/08/03 06:29:25;;;;;;;;;4.00;3.00;;;;;25.99;47.37;100778.03;5018177;28;45515;-87
2022/08/03 06:31:51;;;;;;;;;3.00;2.50;;;;;26.02;47.43;100778.44;5017486;28;45516;-88
2022/08/03 06:34:16;;;;;;;;;3.25;3.00;;;;;26.00;47.46;100772.47;5016476;28;46709;-84
2022/08/03 06:36:41;;;;;;;;;2.00;2.00;;;;;26.01;47.17;100770.63;4996449;28;46029;-83
2022/08/03 06:39:07;;;;;;;;;5.00;4.00;;;;;26.09;47.25;100787.34;5015488;28;45585;-82
2022/08/03 06:41:32;;;;;;;;;3.50;3.00;;;;;26.01;47.25;100766.06;5015141;28;45583;-85
2022/08/03 06:43:58;;;;;;;;;2.25;2.00;;;;;26.11;47.22;100777.22;5014397;28;45779;-82
2022/08/03 06:46:23;;;;;;;;;2.50;2.50;;;;;26.15;47.06;100777.63;5015059;28;45676;-85
2022/08/03 06:48:49;;;;;;;;;4.75;3.50;;;;;26.22;47.47;100783.84;5014828;28;45624;-82
2022/08/03 06:51:14;;;;;;;;;3.00;2.00;;;;;26.16;47.18;100772.06;5014846;28;45641;-83
2022/08/03 06:57:02;;;;;;;;;3.50;3.50;;;;;26.30;46.74;100791.72;5014587;28;45744;-85
2022/08/03 06:59:28;;;;;;;;;4.00;3.00;;;;;26.28;46.38;100777.69;5015395;28;45579;-80
2022/08/03 07:01:53;;;;;;;;;3.00;3.00;;;;;26.24;46.30;100771.88;5014908;28;45769;-85
2022/08/03 07:04:19;;;;;;;;;5.00;4.00;;;;;26.36;46.82;100790.06;5014772;28;45903;-82
2022/08/03 07:06:44;;;;;;;;;4.00;3.00;;;;;26.36;46.92;100784.69;5014360;28;45665;-79
2022/08/03 07:12:32;;;;;;;;;5.00;4.00;;;;;26.43;46.36;100789.03;5014070;28;45444;-79
2022/08/03 07:14:59;;;;;;;;;4.50;4.50;;;;;26.45;46.10;100797.69;5014303;28;45743;-82
2022/08/03 07:17:25;;;;;;;;;23.25;13.75;;;;;26.41;46.03;100785.72;5014481;28;46048;-83
2022/08/03 07:19:50;;;;;;;;;10.00;8.00;;;;;26.48;45.86;100780.34;5015393;28;45652;-81
2022/08/03 07:22:16;;;;;;;;;10.75;8.25;;;;;26.53;45.77;100789.44;5014061;28;45604;-82
2022/08/03 07:24:41;;;;;;;;;5.50;4.00;;;;;26.55;45.63;100789.25;5014425;28;45591;-80
2022/08/03 07:27:08;;;;;;;;;5.75;4.00;;;;;26.58;45.54;100789.63;5015254;28;45610;-83
2022/08/03 07:29:34;;;;;;;;;6.00;5.00;;;;;26.62;45.52;100784.66;5013728;28;45736;-79
2022/08/03 07:32:00;;;;;;;;;7.00;5.50;;;;;26.64;45.69;100788.81;5013444;28;45474;-80
2022/08/03 07:34:26;;;;;;;;;5.00;4.25;;;;;26.68;46.13;100783.81;5013318;28;46534;-82
2022/08/03 07:36:52;;;;;;;;;6.50;4.00;;;;;26.70;46.11;100782.59;5013824;28;46295;-78
2022/08/03 07:42:39;;;;;;;;;6.25;6.00;;;;;26.72;46.00;100771.63;5013770;28;45488;-80
2022/08/03 07:45:05;;;;;;;;;6.50;6.50;;;;;26.78;45.36;100775.31;4995285;28;48175;-79
2022/08/03 07:47:30;;;;;;;;;7.75;6.00;;;;;26.81;45.69;100783.81;5013129;28;46364;-79
2022/08/03 07:49:57;;;;;;;;;5.50;4.50;;;;;26.85;45.50;100786.88;5012834;28;45499;-78
2022/08/03 07:58:28;;;;;;;;;4.00;4.00;;;;;26.96;45.52;100787.09;5012670;28;45652;-77
2022/08/03 08:00:53;;;;;;;;;5.00;5.00;;;;;26.98;45.59;100786.91;5013208;28;45511;-77
2022/08/03 08:03:20;;;;;;;;;6.25;4.75;;;;;27.02;45.42;100785.44;5013072;28;45639;-78
2022/08/03 08:05:46;;;;;;;;;7.00;5.00;;;;;27.03;45.43;100785.22;5012994;28;46367;-78
2022/08/03 08:08:11;;;;;;;;;5.00;5.00;;;;;27.06;45.29;100786.66;5012553;28;46281;-76
2022/08/03 08:10:37;;;;;;;;;4.75;4.00;;;;;27.03;45.20;100779.03;5012682;28;45552;-78
2022/08/03 08:13:03;;;;;;;;;5.00;4.00;;;;;27.13;44.64;100782.91;5012885;28;45680;-77
2022/08/03 08:15:28;;;;;;;;;4.75;4.25;;;;;27.20;45.25;100788.28;5012668;28;47001;-77
2022/08/03 08:17:57;;;;;;;;;4.00;4.00;;;;;27.20;44.42;100776.69;5012546;28;46275;-77
2022/08/03 08:20:25;;;;;;;;;5.75;4.25;;;;;27.27;44.68;100780.97;5012894;28;45715;-77
2022/08/03 08:22:51;;;;;;;;;5.00;4.00;;;;;27.24;44.73;100770.66;5012962;28;45634;-78
2022/08/03 08:25:16;;;;;;;;;4.75;4.75;;;;;27.31;44.49;100776.00;5015685;28;45515;-78
2022/08/03 08:27:44;;;;;;;;;5.25;5.00;;;;;27.38;44.56;100779.47;5016182;28;46334;-76
2022/08/03 08:30:10;;;;;;;;;5.00;4.00;;;;;27.43;44.15;100780.47;5016081;28;45687;-78
2022/08/03 08:32:36;;;;;;;;;5.00;4.00;;;;;27.41;44.10;100763.75;5016273;28;45721;-76
2022/08/03 08:35:05;;;;;;;;;4.00;4.00;;;;;27.51;43.75;100779.44;5016005;28;45671;-77
2022/08/03 08:37:31;;;;;;;;;3.25;3.25;;;;;27.55;43.79;100772.59;5015530;28;46572;-77
2022/08/03 08:43:18;;;;;;;;;4.00;4.00;;;;;27.66;43.49;100777.28;5015796;28;45647;-77
2022/08/03 08:45:44;;;;;;;;;7.50;3.75;;;;;27.73;43.72;100767.31;5015870;28;46875;-77
2022/08/03 08:48:12;;;;;;;;;3.00;3.00;;;;;27.79;42.90;100762.94;5015761;28;46255;-78
2022/08/03 08:50:38;;;;;;;;;4.00;3.75;;;;;27.81;42.91;100763.50;5015844;28;45680;-78
2022/08/03 08:53:06;;;;;;;;;3.00;3.00;;;;;27.83;42.69;100767.66;5016351;28;45692;-80
2022/08/03 08:55:33;;;;;;;;;4.00;3.00;;;;;27.93;42.72;100769.84;5016441;28;45633;-81
2022/08/03 08:58:05;;;;;;;;;3.75;3.75;;;;;27.96;42.17;100762.16;5016327;28;46001;-79
2022/08/03 09:00:30;;;;;;;;;4.00;3.00;;;;;28.00;42.28;100765.25;5016291;28;45673;-80
2022/08/03 09:02:56;;;;;;;;;4.00;3.50;;;;;28.08;41.95;100762.28;5016437;28;45684;-80
2022/08/03 09:05:22;;;;;;;;;3.00;2.00;;;;;28.15;41.58;100762.25;5016070;28;45923;-79
2022/08/03 09:07:47;;;;;;;;;2.00;2.00;;;;;28.16;41.83;100756.66;5015878;28;45750;-84
2022/08/03 09:13:34;;;;;;;;;2.75;2.75;;;;;28.35;41.14;100763.72;5015975;28;45786;-83
2022/08/03 09:16:17;;;;;;;;;3.25;3.25;;;;;28.42;41.04;100757.44;5015505;28;46605;-81
2022/08/03 09:18:47;;;;;;;;;3.25;3.00;;;;;28.45;40.69;100746.25;5015689;28;46326;-83
2022/08/03 09:21:13;;;;;;;;;3.50;3.50;;;;;28.52;40.74;100750.50;5015073;28;45618;-82
2022/08/03 09:23:50;;;;;;;;;3.75;3.25;;;;;28.56;40.56;100756.25;5015692;28;45660;-82
2022/08/03 09:26:26;;;;;;;;;4.00;3.75;;;;;28.61;40.09;100751.84;5015786;28;46487;-83
2022/08/03 09:29:02;;;;;;;;;2.75;2.00;;;;;28.70;40.30;100755.09;5015221;28;46334;-83
2022/08/03 09:31:33;;;;;;;;;2.50;2.50;;;;;28.70;40.05;100747.84;4997384;28;45622;-82
2022/08/03 09:34:07;;;;;;;;;2.00;2.00;;;;;28.81;39.48;100757.06;4997112;28;45828;-82
2022/08/03 09:36:47;;;;;;;;;3.00;3.00;;;;;28.88;39.24;100757.81;5014238;28;46513;-83
2022/08/03 09:39:15;;;;;;;;;2.25;2.25;;;;;28.92;39.33;100750.09;5014987;28;46451;-81
2022/08/03 09:41:43;;;;;;;;;3.00;3.00;;;;;29.01;38.95;100754.13;4997151;28;45735;-81
2022/08/03 09:44:08;;;;;;;;;3.50;2.50;;;;;28.97;38.80;100737.59;5015317;28;45610;-82
2022/08/03 09:47:00;;;;;;;;;3.25;3.00;;;;;29.12;38.78;100751.50;5016090;28;45556;-81
2022/08/03 09:49:25;;;;;;;;;2.25;2.25;;;;;29.12;38.83;100738.00;5011445;28;46541;-82
2022/08/03 09:51:51;;;;;;;;;5.00;5.00;;;;;29.21;38.75;100733.09;5017214;28;45609;-80
2022/08/03 09:54:37;;;;;;;;;2.25;2.25;;;;;29.31;38.06;100743.38;5018358;28;45649;-80
2022/08/03 09:57:02;;;;;;;;;3.25;2.75;;;;;29.32;38.55;100731.53;5017087;28;45888;-80
2022/08/03 09:59:29;;;;;;;;;5.75;4.25;;;;;29.36;38.46;100730.88;4997813;28;46936;-82
2022/08/03 10:01:57;;;;;;;;;4.00;3.50;;;;;29.48;38.49;100742.53;5016898;28;45741;-82
2022/08/03 10:04:23;;;;;;;;;2.25;2.25;;;;;29.48;38.12;100729.03;5017740;28;45481;-82
2022/08/03 10:07:08;;;;;;;;;4.75;4.00;;;;;29.56;37.73;100720.63;5017880;28;46522;-81
2022/08/03 10:09:35;;;;;;;;;4.00;2.50;;;;;29.59;37.40;100730.94;5018329;28;46190;-82
2022/08/03 10:12:12;;;;;;;;;3.00;3.00;;;;;29.64;37.55;100724.84;5020756;28;45517;-81
2022/08/03 10:14:38;;;;;;;;;4.50;3.00;;;;;29.68;37.29;100725.22;4998472;28;46056;-81
2022/08/03 10:17:05;;;;;;;;;4.00;3.50;;;;;29.73;37.38;100720.78;5014457;28;47778;-81
2022/08/03 10:19:31;;;;;;;;;3.75;3.00;;;;;29.81;37.39;100727.69;4996834;28;47199;-81
2022/08/03 10:22:03;;;;;;;;;4.00;3.25;;;;;29.84;37.30;100717.28;5014453;28;45559;-82
2022/08/03 10:24:32;;;;;;;;;3.25;2.75;;;;;29.84;37.08;100708.34;5014706;28;45734;-79
2022/08/03 10:27:02;;;;;;;;;4.00;4.00;;;;;29.95;36.77;100718.38;4996577;28;48658;-81
2022/08/03 10:29:31;;;;;;;;;4.25;3.00;;;;;29.98;37.06;100721.41;5014228;28;46115;-80
2022/08/03 10:32:00;;;;;;;;;3.00;3.00;;;;;30.00;36.98;100713.09;5014618;28;45673;-81
2022/08/03 10:34:32;;;;;;;;;3.00;2.50;;;;;30.08;36.58;100711.91;5014693;28;45794;-81
2022/08/03 10:37:00;;;;;;;;;3.00;2.50;;;;;30.16;36.24;100714.28;4996309;28;47442;-80
2022/08/03 10:39:28;;;;;;;;;2.00;2.00;;;;;30.21;36.41;100706.28;5014016;28;46013;-81
2022/08/03 10:41:57;;;;;;;;;2.00;1.50;;;;;30.21;35.50;100693.59;5014534;28;45504;-82
2022/08/03 10:44:25;;;;;;;;;1.00;1.00;;;;;30.26;36.19;100690.16;5014489;28;45612;-81
2022/08/03 10:46:51;;;;;;;;;2.00;2.00;;;;;30.28;35.98;100696.19;5013596;28;45808;-80
2022/08/03 10:49:18;;;;;;;;;3.00;2.00;;;;;30.33;35.79;100693.59;4996116;28;47888;-81
2022/08/03 10:51:45;;;;;;;;;2.50;2.50;;;;;30.40;35.90;100686.97;5014271;28;45688;-81
2022/08/03 11:00:53;;;;;;;;;2.25;2.00;;;;;30.51;35.12;100682.63;5013531;28;45925;-82
2022/08/03 11:03:19;;;;;;;;;1.75;1.75;;;;;30.57;34.73;100684.38;5013804;28;45638;-81
2022/08/03 11:05:48;;;;;;;;;3.00;2.75;;;;;30.57;34.37;100678.97;5013919;28;45906;-82
2022/08/03 11:08:31;;;;;;;;;2.50;2.50;;;;;30.66;34.36;100677.53;4995699;28;47668;-83
2022/08/03 11:11:22;;;;;;;;;3.00;3.00;;;;;30.67;34.11;100679.19;5013638;28;45574;-81
2022/08/03 11:13:58;;;;;;;;;3.00;2.00;;;;;30.79;34.60;100676.47;4996174;28;45607;-83
2022/08/03 11:16:26;;;;;;;;;3.00;3.00;;;;;30.81;34.25;100669.75;5014368;28;45637;-84
2022/08/03 11:19:00;;;;;;;;;3.50;3.00;;;;;30.91;34.16;100668.31;5014496;28;45651;-82
2022/08/03 11:21:47;;;;;;;;;3.00;2.00;;;;;30.96;34.11;100661.09;5013732;28;46043;-83
2022/08/03 11:27:34;;;;;;;;;2.75;2.75;;;;;31.06;33.84;100664.03;5013584;28;45859;-82
2022/08/03 11:30:05;;;;;;;;;2.50;2.25;;;;;31.10;33.63;100651.66;5013723;28;46661;-83
2022/08/03 11:32:39;;;;;;;;;2.75;2.75;;;;;31.16;33.36;100656.09;5014035;28;45763;-81
2022/08/03 11:35:09;;;;;;;;;3.00;3.00;;;;;31.20;33.35;100665.38;5013882;28;45674;-81
2022/08/03 11:37:35;;;;;;;;;1.75;1.00;;;;;31.22;33.41;100651.59;5014043;28;45693;-81
2022/08/03 11:43:21;;;;;;;;;3.00;3.00;;;;;31.32;33.09;100643.66;5013587;28;45876;-81
2022/08/03 11:46:06;;;;;;;;;1.75;1.75;;;;;31.33;32.55;100642.59;5013779;28;45612;-82
2022/08/03 11:48:41;;;;;;;;;2.75;2.50;;;;;31.36;32.74;100639.41;4995667;28;45505;-81
2022/08/03 11:51:19;;;;;;;;;2.75;2.25;;;;;31.39;32.18;100638.91;5013693;28;45618;-82
2022/08/03 11:53:46;;;;;;;;;1.50;1.50;;;;;31.43;32.69;100639.22;5013680;28;46404;-82
2022/08/03 11:59:36;;;;;;;;;9.25;8.50;;;;;31.56;32.57;100642.44;5015283;28;45631;-82
2022/08/03 12:02:15;;;;;;;;;5.50;4.75;;;;;31.59;32.28;100639.25;5017071;28;46347;-84
2022/08/03 12:04:58;;;;;;;;;2.75;2.75;;;;;31.65;32.43;100649.13;5017556;28;46201;-86
2022/08/03 12:07:28;;;;;;;;;2.75;2.75;;;;;31.70;31.88;100631.28;5001696;28;45795;-81
2022/08/03 12:16:37;;;;;;;;;2.25;2.25;;;;;31.90;31.87;100634.34;5017185;28;45981;-80
2022/08/03 12:19:05;;;;;;;;;2.00;2.00;;;;;31.92;31.95;100630.28;5015340;28;45595;-81
2022/08/03 12:21:31;;;;;;;;;3.00;1.75;;;;;31.99;31.27;100635.53;4997430;28;45562;-81
2022/08/03 12:24:01;;;;;;;;;3.25;2.00;;;;;31.99;31.89;100624.69;5015430;28;45715;-81
2022/08/03 12:26:48;;;;;;;;;4.00;3.25;;;;;31.98;31.90;100618.44;5015600;28;46028;-82
2022/08/03 12:29:20;;;;;;;;;9.75;8.75;;;;;32.06;31.95;100628.88;5015729;28;45660;-79
2022/08/03 12:31:46;;;;;;;;;15.75;15.25;;;;;32.08;31.45;100628.59;5015913;28;45625;-79
2022/08/03 12:34:12;;;;;;;;;2.75;1.00;;;;;32.15;30.97;100633.91;5016073;28;46478;-78
2022/08/03 12:36:49;;;;;;;;;3.75;3.75;;;;;32.13;31.02;100626.00;5015992;28;46114;-79
2022/08/03 12:39:15;;;;;;;;;1.00;1.00;;;;;32.14;30.61;100616.81;5016023;28;45632;-79
2022/08/03 12:41:40;;;;;;;;;1.75;1.75;;;;;32.18;30.53;100625.25;4998249;28;45649;-78
2022/08/03 12:44:07;;;;;;;;;3.25;2.25;;;;;32.15;30.27;100618.44;5016048;28;46665;-79
2022/08/03 12:46:35;;;;;;;;;1.75;1.75;;;;;32.25;30.56;100623.19;4998207;28;47599;-78
2022/08/03 12:49:03;;;;;;;;;1.00;1.00;;;;;32.27;30.62;100619.16;5015894;28;45663;-78
2022/08/03 12:51:31;;;;;;;;;4.75;4.25;;;;;32.31;30.25;100623.00;4997954;28;45904;-79
2022/08/03 12:53:57;;;;;;;;;23.00;21.75;;;;;32.34;30.30;100618.94;5015551;28;45940;-79
2022/08/03 12:56:24;;;;;;;;;9.25;9.25;;;;;32.40;30.78;100626.91;5015439;28;47028;-78
2022/08/03 12:58:49;;;;;;;;;6.50;6.25;;;;;32.38;30.42;100599.22;5015727;28;45613;-78
2022/08/03 13:01:16;;;;;;;;;1.75;1.75;;;;;32.46;30.16;100611.50;5016165;28;45639;-78